sensor_id;sensor_type;location;lat;lon;timestamp;temperature;humidity
24638;DHT22;12773;50.162;8.548;2022-10-23T00:00:11;12.90;99.90
24638;DHT22;12773;50.162;8.548;2022-10-23T00:02:59;13.00;99.90
24638;DHT22;12773;50.162;8.548;2022-10-23T00:05:46;12.90;99.90
24638;DHT22;12773;50.162;8.548;2022-10-23T00:08:33;13.00;99.90
24638;DHT22;12773;50.162;8.548;2022-10-23T00:11:23;13.00;99.90
24638;DHT22;12773;50.162;8.548;2022-10-23T00:14:10;13.00;99.90
24638;DHT22;12773;50.162;8.548;2022-10-23T00:16:58;12.80;99.90
24638;DHT22;12773;50.162;8.548;2022-10-23T00:19:46;12.80;99.90
24638;DHT22;12773;50.162;8.548;2022-10-23T00:22:33;12.80;99.90
24638;DHT22;12773;50.162;8.548;2022-10-23T00:25:21;12.80;99.90
24638;DHT22;12773;50.162;8.548;2022-10-23T00:28:09;12.80;99.90
24638;DHT22;12773;50.162;8.548;2022-10-23T00:30:56;12.70;99.90
24638;DHT22;12773;50.162;8.548;2022-10-23T00:33:44;12.70;99.90
24638;DHT22;12773;50.162;8.548;2022-10-23T00:36:32;12.60;99.90
24638;DHT22;12773;50.162;8.548;2022-10-23T00:39:19;12.50;99.90
24638;DHT22;12773;50.162;8.548;2022-10-23T00:42:08;12.40;99.90
24638;DHT22;12773;50.162;8.548;2022-10-23T00:45:11;12.40;99.90
24638;DHT22;12773;50.162;8.548;2022-10-23T00:48:02;12.30;99.90
24638;DHT22;12773;50.162;8.548;2022-10-23T00:50:49;12.30;99.90
24638;DHT22;12773;50.162;8.548;2022-10-23T00:53:37;12.20;99.90
24638;DHT22;12773;50.162;8.548;2022-10-23T00:56:25;12.20;99.90
24638;DHT22;12773;50.162;8.548;2022-10-23T00:59:13;12.40;99.90
24638;DHT22;12773;50.162;8.548;2022-10-23T01:02:01;12.40;99.90
24638;DHT22;12773;50.162;8.548;2022-10-23T01:04:49;12.40;99.90
24638;DHT22;12773;50.162;8.548;2022-10-23T01:07:55;12.50;99.90
24638;DHT22;12773;50.162;8.548;2022-10-23T01:10:48;12.40;99.90
24638;DHT22;12773;50.162;8.548;2022-10-23T01:16:45;12.40;99.90
24638;DHT22;12773;50.162;8.548;2022-10-23T01:26:25;12.20;99.90
24638;DHT22;12773;50.162;8.548;2022-10-23T01:29:23;12.20;99.90
24638;DHT22;12773;50.162;8.548;2022-10-23T01:32:21;12.10;99.90
24638;DHT22;12773;50.162;8.548;2022-10-23T01:38:28;12.10;99.90
24638;DHT22;12773;50.162;8.548;2022-10-23T01:41:23;12.20;99.90
24638;DHT22;12773;50.162;8.548;2022-10-23T01:44:33;12.20;99.90
24638;DHT22;12773;50.162;8.548;2022-10-23T01:47:22;12.30;99.90
24638;DHT22;12773;50.162;8.548;2022-10-23T01:50:11;12.30;99.90
24638;DHT22;12773;50.162;8.548;2022-10-23T01:52:59;12.20;99.90
24638;DHT22;12773;50.162;8.548;2022-10-23T01:55:48;12.10;99.90
24638;DHT22;12773;50.162;8.548;2022-10-23T01:58:36;12.10;99.90
24638;DHT22;12773;50.162;8.548;2022-10-23T02:01:26;12.00;99.90
24638;DHT22;12773;50.162;8.548;2022-10-23T02:04:17;12.00;99.90
24638;DHT22;12773;50.162;8.548;2022-10-23T02:07:05;12.00;99.90
24638;DHT22;12773;50.162;8.548;2022-10-23T02:09:53;12.00;99.90
24638;DHT22;12773;50.162;8.548;2022-10-23T02:15:53;12.20;99.90
24638;DHT22;12773;50.162;8.548;2022-10-23T02:18:45;12.30;99.90
24638;DHT22;12773;50.162;8.548;2022-10-23T02:27:44;12.30;99.90
24638;DHT22;12773;50.162;8.548;2022-10-23T02:30:30;12.30;99.90
24638;DHT22;12773;50.162;8.548;2022-10-23T02:33:18;12.30;99.90
24638;DHT22;12773;50.162;8.548;2022-10-23T02:36:06;12.20;99.90
24638;DHT22;12773;50.162;8.548;2022-10-23T02:38:54;12.10;99.90
24638;DHT22;12773;50.162;8.548;2022-10-23T02:44:46;12.10;99.90
24638;DHT22;12773;50.162;8.548;2022-10-23T02:51:03;12.00;99.90
24638;DHT22;12773;50.162;8.548;2022-10-23T02:54:04;12.00;99.90
24638;DHT22;12773;50.162;8.548;2022-10-23T02:56:58;12.00;99.90
24638;DHT22;12773;50.162;8.548;2022-10-23T03:03:05;12.10;99.90
24638;DHT22;12773;50.162;8.548;2022-10-23T03:05:47;12.20;99.90
24638;DHT22;12773;50.162;8.548;2022-10-23T03:09:02;12.30;99.90
24638;DHT22;12773;50.162;8.548;2022-10-23T03:11:44;12.30;99.90
24638;DHT22;12773;50.162;8.548;2022-10-23T03:14:32;12.40;99.90
24638;DHT22;12773;50.162;8.548;2022-10-23T03:17:19;12.40;99.90
24638;DHT22;12773;50.162;8.548;2022-10-23T03:20:07;12.50;99.90
24638;DHT22;12773;50.162;8.548;2022-10-23T03:22:55;12.50;99.90
24638;DHT22;12773;50.162;8.548;2022-10-23T03:25:42;12.40;99.90
24638;DHT22;12773;50.162;8.548;2022-10-23T03:28:30;12.30;99.90
24638;DHT22;12773;50.162;8.548;2022-10-23T03:31:17;12.20;99.90
24638;DHT22;12773;50.162;8.548;2022-10-23T03:34:05;12.30;99.90
24638;DHT22;12773;50.162;8.548;2022-10-23T03:36:54;12.30;99.90
24638;DHT22;12773;50.162;8.548;2022-10-23T03:39:42;12.40;99.90
24638;DHT22;12773;50.162;8.548;2022-10-23T03:42:29;12.30;99.90
24638;DHT22;12773;50.162;8.548;2022-10-23T03:45:16;12.30;99.90
24638;DHT22;12773;50.162;8.548;2022-10-23T03:48:05;12.40;99.90
24638;DHT22;12773;50.162;8.548;2022-10-23T03:50:53;12.40;99.90
24638;DHT22;12773;50.162;8.548;2022-10-23T03:53:40;12.30;99.90
24638;DHT22;12773;50.162;8.548;2022-10-23T03:56:28;12.30;99.90
24638;DHT22;12773;50.162;8.548;2022-10-23T03:59:15;12.20;99.90
24638;DHT22;12773;50.162;8.548;2022-10-23T04:02:03;12.10;99.90
24638;DHT22;12773;50.162;8.548;2022-10-23T04:04:50;12.10;99.90
24638;DHT22;12773;50.162;8.548;2022-10-23T04:07:38;12.10;99.90
24638;DHT22;12773;50.162;8.548;2022-10-23T04:10:25;12.10;99.90
24638;DHT22;12773;50.162;8.548;2022-10-23T04:13:12;12.20;99.90
24638;DHT22;12773;50.162;8.548;2022-10-23T04:16:00;12.30;99.90
24638;DHT22;12773;50.162;8.548;2022-10-23T04:18:47;12.30;99.90
24638;DHT22;12773;50.162;8.548;2022-10-23T04:21:35;12.40;99.90
24638;DHT22;12773;50.162;8.548;2022-10-23T04:24:24;12.40;99.90
24638;DHT22;12773;50.162;8.548;2022-10-23T04:27:12;12.40;99.90
24638;DHT22;12773;50.162;8.548;2022-10-23T04:30:00;12.30;99.90
24638;DHT22;12773;50.162;8.548;2022-10-23T04:32:52;12.30;99.90
24638;DHT22;12773;50.162;8.548;2022-10-23T04:35:39;12.20;99.90
24638;DHT22;12773;50.162;8.548;2022-10-23T04:38:27;12.20;99.90
24638;DHT22;12773;50.162;8.548;2022-10-23T04:41:14;12.30;99.90
24638;DHT22;12773;50.162;8.548;2022-10-23T04:44:02;12.30;99.90
24638;DHT22;12773;50.162;8.548;2022-10-23T04:46:49;12.20;99.90
24638;DHT22;12773;50.162;8.548;2022-10-23T04:49:36;12.20;99.90
24638;DHT22;12773;50.162;8.548;2022-10-23T04:52:24;12.30;99.90
24638;DHT22;12773;50.162;8.548;2022-10-23T04:55:11;12.40;99.90
24638;DHT22;12773;50.162;8.548;2022-10-23T04:57:59;12.30;99.90
24638;DHT22;12773;50.162;8.548;2022-10-23T05:00:47;12.20;99.90
24638;DHT22;12773;50.162;8.548;2022-10-23T05:03:34;12.10;99.90
24638;DHT22;12773;50.162;8.548;2022-10-23T05:06:22;12.10;99.90
24638;DHT22;12773;50.162;8.548;2022-10-23T05:09:09;12.10;99.90
24638;DHT22;12773;50.162;8.548;2022-10-23T05:11:56;12.20;99.90
24638;DHT22;12773;50.162;8.548;2022-10-23T05:14:44;12.30;99.90
24638;DHT22;12773;50.162;8.548;2022-10-23T05:17:39;12.40;99.90
24638;DHT22;12773;50.162;8.548;2022-10-23T05:20:24;12.30;99.90
24638;DHT22;12773;50.162;8.548;2022-10-23T05:23:16;12.30;99.90
24638;DHT22;12773;50.162;8.548;2022-10-23T05:26:04;12.30;99.90
24638;DHT22;12773;50.162;8.548;2022-10-23T05:28:51;12.30;99.90
24638;DHT22;12773;50.162;8.548;2022-10-23T05:31:39;12.20;99.90
24638;DHT22;12773;50.162;8.548;2022-10-23T05:34:27;12.30;99.90
24638;DHT22;12773;50.162;8.548;2022-10-23T05:37:15;12.20;99.90
24638;DHT22;12773;50.162;8.548;2022-10-23T05:40:03;12.20;99.90
24638;DHT22;12773;50.162;8.548;2022-10-23T05:42:51;12.10;99.90
24638;DHT22;12773;50.162;8.548;2022-10-23T05:45:38;12.10;99.90
24638;DHT22;12773;50.162;8.548;2022-10-23T05:48:25;12.20;99.90
24638;DHT22;12773;50.162;8.548;2022-10-23T05:51:14;12.20;99.90
24638;DHT22;12773;50.162;8.548;2022-10-23T05:54:04;12.10;99.90
24638;DHT22;12773;50.162;8.548;2022-10-23T05:56:54;12.00;99.90
24638;DHT22;12773;50.162;8.548;2022-10-23T05:59:42;11.90;99.90
24638;DHT22;12773;50.162;8.548;2022-10-23T06:02:29;11.80;99.90
24638;DHT22;12773;50.162;8.548;2022-10-23T06:05:16;11.70;99.90
24638;DHT22;12773;50.162;8.548;2022-10-23T06:08:04;11.90;99.90
24638;DHT22;12773;50.162;8.548;2022-10-23T06:10:51;12.00;99.90
24638;DHT22;12773;50.162;8.548;2022-10-23T06:13:43;12.10;99.90
24638;DHT22;12773;50.162;8.548;2022-10-23T06:16:31;12.20;99.90
24638;DHT22;12773;50.162;8.548;2022-10-23T06:19:19;12.20;99.90
24638;DHT22;12773;50.162;8.548;2022-10-23T06:22:06;12.30;99.90
24638;DHT22;12773;50.162;8.548;2022-10-23T06:24:54;12.20;99.90
24638;DHT22;12773;50.162;8.548;2022-10-23T06:27:41;12.10;99.90
24638;DHT22;12773;50.162;8.548;2022-10-23T06:30:28;12.10;99.90
24638;DHT22;12773;50.162;8.548;2022-10-23T06:33:16;12.10;99.90
24638;DHT22;12773;50.162;8.548;2022-10-23T06:36:04;12.20;99.90
24638;DHT22;12773;50.162;8.548;2022-10-23T06:38:53;12.20;99.90
24638;DHT22;12773;50.162;8.548;2022-10-23T06:41:41;12.10;99.90
24638;DHT22;12773;50.162;8.548;2022-10-23T06:44:30;12.00;99.90
24638;DHT22;12773;50.162;8.548;2022-10-23T06:47:18;11.90;99.90
24638;DHT22;12773;50.162;8.548;2022-10-23T06:50:05;11.90;99.90
24638;DHT22;12773;50.162;8.548;2022-10-23T06:52:54;12.00;99.90
24638;DHT22;12773;50.162;8.548;2022-10-23T06:55:41;12.10;99.90
24638;DHT22;12773;50.162;8.548;2022-10-23T06:58:29;12.10;99.90
24638;DHT22;12773;50.162;8.548;2022-10-23T07:01:16;12.30;99.90
24638;DHT22;12773;50.162;8.548;2022-10-23T07:04:04;12.40;99.90
24638;DHT22;12773;50.162;8.548;2022-10-23T07:06:54;12.60;99.90
24638;DHT22;12773;50.162;8.548;2022-10-23T07:09:42;12.60;99.90
24638;DHT22;12773;50.162;8.548;2022-10-23T07:12:29;12.60;99.90
24638;DHT22;12773;50.162;8.548;2022-10-23T07:15:16;12.60;99.90
24638;DHT22;12773;50.162;8.548;2022-10-23T07:18:05;12.60;99.90
24638;DHT22;12773;50.162;8.548;2022-10-23T07:20:57;12.70;99.90
24638;DHT22;12773;50.162;8.548;2022-10-23T07:23:44;12.70;99.90
24638;DHT22;12773;50.162;8.548;2022-10-23T07:26:32;12.80;99.90
24638;DHT22;12773;50.162;8.548;2022-10-23T07:29:19;13.10;99.90
24638;DHT22;12773;50.162;8.548;2022-10-23T07:32:06;13.30;99.90
24638;DHT22;12773;50.162;8.548;2022-10-23T07:34:54;13.40;99.90
24638;DHT22;12773;50.162;8.548;2022-10-23T07:37:41;13.60;99.90
24638;DHT22;12773;50.162;8.548;2022-10-23T07:40:30;13.70;99.90
24638;DHT22;12773;50.162;8.548;2022-10-23T07:43:17;13.90;99.90
24638;DHT22;12773;50.162;8.548;2022-10-23T07:46:05;14.00;99.90
24638;DHT22;12773;50.162;8.548;2022-10-23T07:48:55;14.20;99.90
24638;DHT22;12773;50.162;8.548;2022-10-23T07:51:42;14.30;99.90
24638;DHT22;12773;50.162;8.548;2022-10-23T07:54:32;14.50;99.90
24638;DHT22;12773;50.162;8.548;2022-10-23T07:57:19;14.60;99.90
24638;DHT22;12773;50.162;8.548;2022-10-23T08:00:08;14.70;99.90
24638;DHT22;12773;50.162;8.548;2022-10-23T08:02:56;14.90;99.90
24638;DHT22;12773;50.162;8.548;2022-10-23T08:05:43;15.00;99.90
24638;DHT22;12773;50.162;8.548;2022-10-23T08:08:31;15.10;99.90
24638;DHT22;12773;50.162;8.548;2022-10-23T08:11:24;15.30;99.90
24638;DHT22;12773;50.162;8.548;2022-10-23T08:14:10;15.40;99.90
24638;DHT22;12773;50.162;8.548;2022-10-23T08:16:58;15.60;99.90
24638;DHT22;12773;50.162;8.548;2022-10-23T08:19:45;15.70;99.90
24638;DHT22;12773;50.162;8.548;2022-10-23T08:22:33;15.60;99.90
24638;DHT22;12773;50.162;8.548;2022-10-23T08:25:22;15.70;99.90
24638;DHT22;12773;50.162;8.548;2022-10-23T08:28:11;15.90;99.90
24638;DHT22;12773;50.162;8.548;2022-10-23T08:31:05;16.00;99.90
24638;DHT22;12773;50.162;8.548;2022-10-23T08:33:48;16.00;99.90
24638;DHT22;12773;50.162;8.548;2022-10-23T08:36:35;16.10;99.90
24638;DHT22;12773;50.162;8.548;2022-10-23T08:39:25;16.10;99.90
24638;DHT22;12773;50.162;8.548;2022-10-23T08:42:23;16.10;99.90
24638;DHT22;12773;50.162;8.548;2022-10-23T08:45:30;16.20;99.90
24638;DHT22;12773;50.162;8.548;2022-10-23T08:48:27;16.40;99.90
24638;DHT22;12773;50.162;8.548;2022-10-23T08:51:35;16.40;99.90
24638;DHT22;12773;50.162;8.548;2022-10-23T08:54:27;16.40;99.90
24638;DHT22;12773;50.162;8.548;2022-10-23T08:57:12;16.30;99.90
24638;DHT22;12773;50.162;8.548;2022-10-23T09:00:06;16.30;99.90
24638;DHT22;12773;50.162;8.548;2022-10-23T09:02:54;16.50;99.90
24638;DHT22;12773;50.162;8.548;2022-10-23T09:06:04;16.60;99.90
24638;DHT22;12773;50.162;8.548;2022-10-23T09:12:02;16.50;99.90
24638;DHT22;12773;50.162;8.548;2022-10-23T09:17:41;16.60;99.90
24638;DHT22;12773;50.162;8.548;2022-10-23T09:20:34;16.60;99.90
24638;DHT22;12773;50.162;8.548;2022-10-23T09:23:22;16.60;99.90
24638;DHT22;12773;50.162;8.548;2022-10-23T09:26:17;16.80;99.90
24638;DHT22;12773;50.162;8.548;2022-10-23T09:32:08;16.90;99.90
24638;DHT22;12773;50.162;8.548;2022-10-23T09:34:55;16.90;99.90
24638;DHT22;12773;50.162;8.548;2022-10-23T09:37:45;17.20;99.90
24638;DHT22;12773;50.162;8.548;2022-10-23T09:40:43;17.30;99.90
24638;DHT22;12773;50.162;8.548;2022-10-23T09:43:27;17.40;99.90
24638;DHT22;12773;50.162;8.548;2022-10-23T09:46:15;17.60;99.90
24638;DHT22;12773;50.162;8.548;2022-10-23T09:49:02;17.80;99.90
24638;DHT22;12773;50.162;8.548;2022-10-23T09:51:59;17.90;99.90
24638;DHT22;12773;50.162;8.548;2022-10-23T09:54:53;18.10;99.90
24638;DHT22;12773;50.162;8.548;2022-10-23T09:57:42;18.20;99.90
24638;DHT22;12773;50.162;8.548;2022-10-23T10:00:30;18.20;99.90
24638;DHT22;12773;50.162;8.548;2022-10-23T10:03:20;18.30;99.90
24638;DHT22;12773;50.162;8.548;2022-10-23T10:06:20;18.40;99.90
24638;DHT22;12773;50.162;8.548;2022-10-23T10:09:12;18.20;99.90
24638;DHT22;12773;50.162;8.548;2022-10-23T10:15:46;18.00;99.90
24638;DHT22;12773;50.162;8.548;2022-10-23T10:18:41;18.10;99.90
24638;DHT22;12773;50.162;8.548;2022-10-23T10:24:40;18.00;99.90
24638;DHT22;12773;50.162;8.548;2022-10-23T10:30:24;17.90;99.90
24638;DHT22;12773;50.162;8.548;2022-10-23T10:33:33;18.10;99.90
24638;DHT22;12773;50.162;8.548;2022-10-23T10:42:34;17.90;99.90
24638;DHT22;12773;50.162;8.548;2022-10-23T10:52:12;18.00;99.90
24638;DHT22;12773;50.162;8.548;2022-10-23T10:57:51;18.20;99.90
24638;DHT22;12773;50.162;8.548;2022-10-23T11:00:40;18.40;99.90
24638;DHT22;12773;50.162;8.548;2022-10-23T11:03:37;18.40;99.90
24638;DHT22;12773;50.162;8.548;2022-10-23T11:06:28;18.50;99.90
24638;DHT22;12773;50.162;8.548;2022-10-23T11:09:20;18.20;99.90
24638;DHT22;12773;50.162;8.548;2022-10-23T11:12:18;18.20;99.90
24638;DHT22;12773;50.162;8.548;2022-10-23T11:15:01;18.40;99.90
24638;DHT22;12773;50.162;8.548;2022-10-23T11:18:03;18.60;99.90
24638;DHT22;12773;50.162;8.548;2022-10-23T11:27:21;18.30;99.90
24638;DHT22;12773;50.162;8.548;2022-10-23T11:33:29;18.20;99.90
24638;DHT22;12773;50.162;8.548;2022-10-23T11:36:18;18.10;99.90
24638;DHT22;12773;50.162;8.548;2022-10-23T11:39:16;18.10;99.90
24638;DHT22;12773;50.162;8.548;2022-10-23T11:44:56;18.40;99.90
24638;DHT22;12773;50.162;8.548;2022-10-23T11:47:43;18.70;99.90
24638;DHT22;12773;50.162;8.548;2022-10-23T11:56:25;19.00;99.90
24638;DHT22;12773;50.162;8.548;2022-10-23T11:59:27;18.90;99.90
24638;DHT22;12773;50.162;8.548;2022-10-23T12:02:34;19.00;99.90
24638;DHT22;12773;50.162;8.548;2022-10-23T12:05:34;19.20;99.90
24638;DHT22;12773;50.162;8.548;2022-10-23T12:08:26;19.30;99.90
24638;DHT22;12773;50.162;8.548;2022-10-23T12:11:26;19.70;99.90
24638;DHT22;12773;50.162;8.548;2022-10-23T12:14:38;19.70;99.90
24638;DHT22;12773;50.162;8.548;2022-10-23T12:23:25;20.00;99.90
24638;DHT22;12773;50.162;8.548;2022-10-23T12:38:28;21.10;99.90
24638;DHT22;12773;50.162;8.548;2022-10-23T12:41:23;21.20;99.90
24638;DHT22;12773;50.162;8.548;2022-10-23T12:44:11;21.60;99.90
24638;DHT22;12773;50.162;8.548;2022-10-23T12:47:01;21.70;99.90
24638;DHT22;12773;50.162;8.548;2022-10-23T12:49:50;22.00;99.90
24638;DHT22;12773;50.162;8.548;2022-10-23T12:52:49;21.80;99.90
24638;DHT22;12773;50.162;8.548;2022-10-23T12:55:30;21.70;99.90
24638;DHT22;12773;50.162;8.548;2022-10-23T12:58:25;21.70;99.90
24638;DHT22;12773;50.162;8.548;2022-10-23T13:01:49;21.40;99.90
24638;DHT22;12773;50.162;8.548;2022-10-23T13:04:22;21.40;99.90
24638;DHT22;12773;50.162;8.548;2022-10-23T13:07:09;21.40;99.90
24638;DHT22;12773;50.162;8.548;2022-10-23T13:09:58;21.50;99.90
24638;DHT22;12773;50.162;8.548;2022-10-23T13:12:53;21.50;99.90
24638;DHT22;12773;50.162;8.548;2022-10-23T13:15:42;21.60;99.90
24638;DHT22;12773;50.162;8.548;2022-10-23T13:18:38;21.60;99.90
24638;DHT22;12773;50.162;8.548;2022-10-23T13:21:22;21.60;99.90
24638;DHT22;12773;50.162;8.548;2022-10-23T13:24:17;21.80;99.90
24638;DHT22;12773;50.162;8.548;2022-10-23T13:27:00;21.80;99.90
24638;DHT22;12773;50.162;8.548;2022-10-23T13:29:48;21.60;99.90
24638;DHT22;12773;50.162;8.548;2022-10-23T13:32:35;21.60;99.90
24638;DHT22;12773;50.162;8.548;2022-10-23T13:35:24;21.30;99.90
24638;DHT22;12773;50.162;8.548;2022-10-23T13:38:12;21.00;99.90
24638;DHT22;12773;50.162;8.548;2022-10-23T13:41:01;21.10;99.90
24638;DHT22;12773;50.162;8.548;2022-10-23T13:43:50;21.00;99.90
24638;DHT22;12773;50.162;8.548;2022-10-23T13:46:38;21.10;99.90
24638;DHT22;12773;50.162;8.548;2022-10-23T13:49:26;20.90;99.90
24638;DHT22;12773;50.162;8.548;2022-10-23T13:52:16;20.90;99.90
24638;DHT22;12773;50.162;8.548;2022-10-23T13:55:24;21.10;99.90
24638;DHT22;12773;50.162;8.548;2022-10-23T13:58:13;20.90;99.90
24638;DHT22;12773;50.162;8.548;2022-10-23T14:01:00;20.80;99.90
24638;DHT22;12773;50.162;8.548;2022-10-23T14:03:50;20.60;99.90
24638;DHT22;12773;50.162;8.548;2022-10-23T14:06:37;20.50;99.90
24638;DHT22;12773;50.162;8.548;2022-10-23T14:09:25;20.50;99.90
24638;DHT22;12773;50.162;8.548;2022-10-23T14:12:12;20.60;99.90
24638;DHT22;12773;50.162;8.548;2022-10-23T14:15:00;20.70;99.90
24638;DHT22;12773;50.162;8.548;2022-10-23T14:17:48;20.70;99.90
24638;DHT22;12773;50.162;8.548;2022-10-23T14:20:37;20.70;99.90
24638;DHT22;12773;50.162;8.548;2022-10-23T14:23:29;20.70;99.90
24638;DHT22;12773;50.162;8.548;2022-10-23T14:26:15;20.80;99.90
24638;DHT22;12773;50.162;8.548;2022-10-23T14:29:03;20.80;99.90
24638;DHT22;12773;50.162;8.548;2022-10-23T14:31:52;20.80;99.90
24638;DHT22;12773;50.162;8.548;2022-10-23T14:34:41;20.90;99.90
24638;DHT22;12773;50.162;8.548;2022-10-23T14:37:31;21.00;99.90
24638;DHT22;12773;50.162;8.548;2022-10-23T14:40:24;21.00;99.90
24638;DHT22;12773;50.162;8.548;2022-10-23T14:43:07;20.90;99.90
24638;DHT22;12773;50.162;8.548;2022-10-23T14:45:55;20.80;99.90
24638;DHT22;12773;50.162;8.548;2022-10-23T14:48:42;20.60;99.90
24638;DHT22;12773;50.162;8.548;2022-10-23T14:51:31;20.50;99.90
24638;DHT22;12773;50.162;8.548;2022-10-23T14:54:19;20.50;99.90
24638;DHT22;12773;50.162;8.548;2022-10-23T14:57:06;20.40;99.90
24638;DHT22;12773;50.162;8.548;2022-10-23T14:59:54;20.40;99.90
24638;DHT22;12773;50.162;8.548;2022-10-23T15:02:41;20.40;99.90
24638;DHT22;12773;50.162;8.548;2022-10-23T15:05:29;20.40;99.90
24638;DHT22;12773;50.162;8.548;2022-10-23T15:08:16;20.50;99.90
24638;DHT22;12773;50.162;8.548;2022-10-23T15:11:04;20.40;99.90
24638;DHT22;12773;50.162;8.548;2022-10-23T15:13:54;20.40;99.90
24638;DHT22;12773;50.162;8.548;2022-10-23T15:16:42;20.40;99.90
24638;DHT22;12773;50.162;8.548;2022-10-23T15:19:29;20.20;99.90
24638;DHT22;12773;50.162;8.548;2022-10-23T15:22:16;20.30;99.90
24638;DHT22;12773;50.162;8.548;2022-10-23T15:25:05;20.20;99.90
24638;DHT22;12773;50.162;8.548;2022-10-23T15:27:53;20.20;99.90
24638;DHT22;12773;50.162;8.548;2022-10-23T15:30:40;20.10;99.90
24638;DHT22;12773;50.162;8.548;2022-10-23T15:33:31;19.90;99.90
24638;DHT22;12773;50.162;8.548;2022-10-23T15:36:19;19.90;99.90
24638;DHT22;12773;50.162;8.548;2022-10-23T15:39:08;19.80;99.90
24638;DHT22;12773;50.162;8.548;2022-10-23T15:41:56;19.70;99.90
24638;DHT22;12773;50.162;8.548;2022-10-23T15:44:44;19.70;99.90
24638;DHT22;12773;50.162;8.548;2022-10-23T15:47:31;19.50;99.90
24638;DHT22;12773;50.162;8.548;2022-10-23T15:50:18;19.50;99.90
24638;DHT22;12773;50.162;8.548;2022-10-23T15:53:06;19.50;99.90
24638;DHT22;12773;50.162;8.548;2022-10-23T15:55:53;19.40;99.90
24638;DHT22;12773;50.162;8.548;2022-10-23T15:58:42;19.40;99.90
24638;DHT22;12773;50.162;8.548;2022-10-23T16:01:30;19.30;99.90
24638;DHT22;12773;50.162;8.548;2022-10-23T16:04:17;19.30;99.90
24638;DHT22;12773;50.162;8.548;2022-10-23T16:07:04;19.00;99.90
24638;DHT22;12773;50.162;8.548;2022-10-23T16:09:52;18.90;99.90
24638;DHT22;12773;50.162;8.548;2022-10-23T16:12:40;18.80;99.90
24638;DHT22;12773;50.162;8.548;2022-10-23T16:15:27;18.70;99.90
24638;DHT22;12773;50.162;8.548;2022-10-23T16:18:15;18.70;99.90
24638;DHT22;12773;50.162;8.548;2022-10-23T16:21:04;18.70;99.90
24638;DHT22;12773;50.162;8.548;2022-10-23T16:23:53;18.60;99.90
24638;DHT22;12773;50.162;8.548;2022-10-23T16:26:41;18.60;99.90
24638;DHT22;12773;50.162;8.548;2022-10-23T16:29:32;18.50;99.90
24638;DHT22;12773;50.162;8.548;2022-10-23T16:32:19;18.30;99.90
24638;DHT22;12773;50.162;8.548;2022-10-23T16:35:07;18.30;99.90
24638;DHT22;12773;50.162;8.548;2022-10-23T16:37:56;18.30;99.90
24638;DHT22;12773;50.162;8.548;2022-10-23T16:40:51;18.30;99.90
24638;DHT22;12773;50.162;8.548;2022-10-23T16:43:38;18.20;99.90
24638;DHT22;12773;50.162;8.548;2022-10-23T16:46:26;18.10;99.90
24638;DHT22;12773;50.162;8.548;2022-10-23T16:49:13;18.10;99.90
24638;DHT22;12773;50.162;8.548;2022-10-23T16:52:01;18.10;99.90
24638;DHT22;12773;50.162;8.548;2022-10-23T16:54:48;18.00;99.90
24638;DHT22;12773;50.162;8.548;2022-10-23T16:57:36;18.00;99.90
24638;DHT22;12773;50.162;8.548;2022-10-23T17:00:23;18.00;99.90
24638;DHT22;12773;50.162;8.548;2022-10-23T17:03:12;18.10;99.90
24638;DHT22;12773;50.162;8.548;2022-10-23T17:06:01;18.00;99.90
24638;DHT22;12773;50.162;8.548;2022-10-23T17:08:51;17.90;99.90
24638;DHT22;12773;50.162;8.548;2022-10-23T17:11:39;17.90;99.90
24638;DHT22;12773;50.162;8.548;2022-10-23T17:14:27;17.90;99.90
24638;DHT22;12773;50.162;8.548;2022-10-23T17:17:17;17.80;99.90
24638;DHT22;12773;50.162;8.548;2022-10-23T17:20:06;17.80;99.90
24638;DHT22;12773;50.162;8.548;2022-10-23T17:22:53;17.70;99.90
24638;DHT22;12773;50.162;8.548;2022-10-23T17:25:41;17.70;99.90
24638;DHT22;12773;50.162;8.548;2022-10-23T17:28:28;17.60;99.90
24638;DHT22;12773;50.162;8.548;2022-10-23T17:31:17;17.60;99.90
24638;DHT22;12773;50.162;8.548;2022-10-23T17:34:07;17.60;99.90
24638;DHT22;12773;50.162;8.548;2022-10-23T17:36:55;17.50;99.90
24638;DHT22;12773;50.162;8.548;2022-10-23T17:39:43;17.50;99.90
24638;DHT22;12773;50.162;8.548;2022-10-23T17:42:30;17.50;99.90
24638;DHT22;12773;50.162;8.548;2022-10-23T17:45:20;17.50;99.90
24638;DHT22;12773;50.162;8.548;2022-10-23T17:48:08;17.50;99.90
24638;DHT22;12773;50.162;8.548;2022-10-23T17:51:03;17.60;99.90
24638;DHT22;12773;50.162;8.548;2022-10-23T17:53:53;17.40;99.90
24638;DHT22;12773;50.162;8.548;2022-10-23T17:56:41;17.20;99.90
24638;DHT22;12773;50.162;8.548;2022-10-23T17:59:29;17.10;99.90
24638;DHT22;12773;50.162;8.548;2022-10-23T18:02:16;17.00;99.90
24638;DHT22;12773;50.162;8.548;2022-10-23T18:05:05;17.10;99.90
24638;DHT22;12773;50.162;8.548;2022-10-23T18:07:53;17.20;99.90
24638;DHT22;12773;50.162;8.548;2022-10-23T18:10:40;17.00;99.90
24638;DHT22;12773;50.162;8.548;2022-10-23T18:13:27;17.10;99.90
24638;DHT22;12773;50.162;8.548;2022-10-23T18:16:15;17.10;99.90
24638;DHT22;12773;50.162;8.548;2022-10-23T18:19:03;17.20;99.90
24638;DHT22;12773;50.162;8.548;2022-10-23T18:21:51;17.20;99.90
24638;DHT22;12773;50.162;8.548;2022-10-23T18:24:39;17.30;99.90
24638;DHT22;12773;50.162;8.548;2022-10-23T18:27:26;17.30;99.90
24638;DHT22;12773;50.162;8.548;2022-10-23T18:30:14;17.50;99.90
24638;DHT22;12773;50.162;8.548;2022-10-23T18:33:01;17.60;99.90
24638;DHT22;12773;50.162;8.548;2022-10-23T18:35:49;17.60;99.90
24638;DHT22;12773;50.162;8.548;2022-10-23T18:38:37;17.60;99.90
24638;DHT22;12773;50.162;8.548;2022-10-23T18:41:24;17.60;99.90
24638;DHT22;12773;50.162;8.548;2022-10-23T18:44:14;17.50;99.90
24638;DHT22;12773;50.162;8.548;2022-10-23T18:47:02;17.60;99.90
24638;DHT22;12773;50.162;8.548;2022-10-23T18:49:49;17.50;99.90
24638;DHT22;12773;50.162;8.548;2022-10-23T18:52:40;17.60;99.90
24638;DHT22;12773;50.162;8.548;2022-10-23T18:55:27;17.70;99.90
24638;DHT22;12773;50.162;8.548;2022-10-23T18:58:15;17.80;99.90
24638;DHT22;12773;50.162;8.548;2022-10-23T19:01:02;17.90;99.90
24638;DHT22;12773;50.162;8.548;2022-10-23T19:03:50;18.00;99.90
24638;DHT22;12773;50.162;8.548;2022-10-23T19:06:38;18.00;99.90
24638;DHT22;12773;50.162;8.548;2022-10-23T19:09:25;17.90;99.90
24638;DHT22;12773;50.162;8.548;2022-10-23T19:12:12;17.80;99.90
24638;DHT22;12773;50.162;8.548;2022-10-23T19:15:00;17.90;99.90
24638;DHT22;12773;50.162;8.548;2022-10-23T19:17:47;17.90;99.90
24638;DHT22;12773;50.162;8.548;2022-10-23T19:20:38;17.90;99.90
24638;DHT22;12773;50.162;8.548;2022-10-23T19:23:27;17.70;99.90
24638;DHT22;12773;50.162;8.548;2022-10-23T19:26:18;17.60;99.90
24638;DHT22;12773;50.162;8.548;2022-10-23T19:29:07;17.50;99.90
24638;DHT22;12773;50.162;8.548;2022-10-23T19:31:56;17.50;99.90